createdAt,value
2018-06-22T00:01:46.540Z,10.43
2018-06-22T00:04:15.129Z,13.07
2018-06-22T00:06:43.725Z,8.33
2018-06-22T00:09:12.298Z,8.93
2018-06-22T00:11:40.819Z,9.40
2018-06-22T00:14:09.339Z,9.67
2018-06-22T00:16:38.118Z,5.77
2018-06-22T00:19:06.552Z,8.67
2018-06-22T00:21:35.210Z,6.73
2018-06-22T00:24:03.683Z,5.77
2018-06-22T00:26:32.082Z,10.80
2018-06-22T00:29:00.736Z,7.87
2018-06-22T00:31:29.265Z,10.20
2018-06-22T00:33:57.635Z,7.27
2018-06-22T00:36:26.260Z,5.87
2018-06-22T00:38:55.413Z,7.30
2018-06-22T00:41:24.082Z,9.07
2018-06-22T00:43:52.865Z,11.87
2018-06-22T00:46:21.479Z,9.57
2018-06-22T00:48:50.157Z,7.30
2018-06-22T00:51:18.796Z,9.53
2018-06-22T00:54:04.403Z,8.33
2018-06-22T00:56:32.888Z,8.10
2018-06-22T00:59:01.526Z,9.03
2018-06-22T01:01:29.782Z,7.63
2018-06-22T01:03:58.177Z,8.93
2018-06-22T01:06:26.660Z,5.13
2018-06-22T01:08:55.111Z,8.10
2018-06-22T01:11:23.875Z,8.20
2018-06-22T01:13:52.396Z,8.97
2018-06-22T01:16:21.364Z,9.90
2018-06-22T01:18:49.808Z,7.07
2018-06-22T01:21:18.851Z,9.03
2018-06-22T01:23:47.622Z,10.63
2018-06-22T01:26:16.149Z,9.30
2018-06-22T01:28:44.428Z,12.43
2018-06-22T01:31:12.891Z,11.93
2018-06-22T01:33:41.272Z,7.67
2018-06-22T01:36:09.870Z,11.07
2018-06-22T01:38:38.504Z,12.97
2018-06-22T01:41:07.271Z,14.73
2018-06-22T01:43:36.697Z,16.97
2018-06-22T01:46:05.392Z,14.70
2018-06-22T01:48:33.873Z,15.73
2018-06-22T01:51:02.273Z,10.30
2018-06-22T01:53:31.048Z,10.00
2018-06-22T01:55:59.712Z,10.77
2018-06-22T01:58:28.212Z,8.03
2018-06-22T02:00:56.830Z,9.93
2018-06-22T02:03:25.274Z,12.03
2018-06-22T02:05:54.002Z,12.07
2018-06-22T02:08:22.532Z,9.30
2018-06-22T02:10:50.976Z,10.63
2018-06-22T02:13:19.665Z,7.70
2018-06-22T02:15:47.992Z,9.60
2018-06-22T02:18:16.397Z,9.93
2018-06-22T02:20:45.255Z,10.27
2018-06-22T02:23:13.811Z,9.00
2018-06-22T02:25:42.031Z,9.87
2018-06-22T02:28:10.667Z,10.43
2018-06-22T02:30:39.119Z,9.93
2018-06-22T02:33:07.726Z,10.23
2018-06-22T02:35:36.115Z,15.47
2018-06-22T02:38:05.252Z,14.77
2018-06-22T02:40:33.825Z,17.23
2018-06-22T02:43:02.296Z,13.87
2018-06-22T02:45:30.838Z,11.20
2018-06-22T02:47:59.526Z,8.73
2018-06-22T02:50:27.856Z,11.07
2018-06-22T02:52:56.351Z,8.70
2018-06-22T02:55:24.960Z,8.97
2018-06-22T02:57:53.465Z,10.63
2018-06-22T03:00:22.022Z,9.30
2018-06-22T03:02:50.667Z,6.57
2018-06-22T03:05:19.178Z,5.53
2018-06-22T03:07:47.598Z,5.67
2018-06-22T03:10:15.920Z,10.70
2018-06-22T03:12:44.489Z,7.80
2018-06-22T03:15:13.069Z,8.73
2018-06-22T03:17:41.573Z,13.60
2018-06-22T03:20:10.186Z,8.83
2018-06-22T03:22:38.636Z,9.23
2018-06-22T03:25:07.069Z,9.60
2018-06-22T03:27:35.299Z,8.27
2018-06-22T03:30:03.949Z,7.50
2018-06-22T03:32:32.432Z,6.87
2018-06-22T03:35:01.013Z,8.40
2018-06-22T03:37:29.929Z,8.93
2018-06-22T03:39:58.443Z,10.47
2018-06-22T03:42:27.046Z,11.10
2018-06-22T03:44:55.588Z,11.13
2018-06-22T03:47:24.101Z,15.80
2018-06-22T03:49:52.520Z,9.57
2018-06-22T03:52:20.984Z,14.00
2018-06-22T03:54:49.327Z,11.13
2018-06-22T03:57:17.851Z,12.23
2018-06-22T03:59:46.195Z,11.40
2018-06-22T04:02:14.766Z,15.00
2018-06-22T04:04:43.132Z,14.90
2018-06-22T04:07:11.599Z,13.03
2018-06-22T04:09:40.325Z,10.00
2018-06-22T04:12:08.832Z,12.77
2018-06-22T04:14:37.420Z,9.93
2018-06-22T04:17:05.856Z,13.10
2018-06-22T04:19:34.292Z,18.97
2018-06-22T04:22:02.665Z,15.40
2018-06-22T04:24:31.145Z,15.00
2018-06-22T04:26:59.527Z,16.07
2018-06-22T04:29:27.928Z,9.13
2018-06-22T04:31:56.282Z,13.47
2018-06-22T04:34:24.918Z,16.67
2018-06-22T04:36:53.640Z,17.30
2018-06-22T04:39:22.145Z,27.07
2018-06-22T04:41:50.614Z,35.70
2018-06-22T04:44:18.955Z,23.90
2018-06-22T04:46:47.451Z,23.20
2018-06-22T04:49:16.022Z,22.40
2018-06-22T04:51:44.780Z,15.67
2018-06-22T04:54:13.306Z,9.97
2018-06-22T04:56:41.778Z,10.40
2018-06-22T04:59:10.308Z,12.80
2018-06-22T05:01:38.944Z,13.57
2018-06-22T05:04:07.500Z,10.90
2018-06-22T05:06:36.293Z,10.00
2018-06-22T05:09:07.503Z,15.70
2018-06-22T05:11:36.021Z,20.70
2018-06-22T05:14:04.597Z,17.80
2018-06-22T05:16:33.151Z,17.53
2018-06-22T05:19:02.080Z,20.23
2018-06-22T05:21:30.621Z,18.33
2018-06-22T05:23:58.865Z,24.30
2018-06-22T05:26:27.816Z,26.27
2018-06-22T05:28:56.221Z,18.07
2018-06-22T05:31:25.286Z,20.90
2018-06-22T05:33:54.128Z,19.93
2018-06-22T05:36:22.770Z,20.63
2018-06-22T05:38:51.290Z,16.50
2018-06-22T05:41:19.784Z,17.07
2018-06-22T05:43:50.352Z,11.00
2018-06-22T05:46:33.463Z,14.97
2018-06-22T05:49:03.194Z,15.57
2018-06-22T05:51:31.681Z,9.03
2018-06-22T05:54:00.378Z,14.90
2018-06-22T05:56:28.995Z,11.87
2018-06-22T05:59:00.227Z,11.03
2018-06-22T06:01:29.221Z,7.93
2018-06-22T06:03:57.663Z,17.17
2018-06-22T06:06:29.036Z,8.13
2018-06-22T06:08:57.720Z,10.90
2018-06-22T06:11:26.145Z,12.13
2018-06-22T06:13:54.682Z,11.13
2018-06-22T06:16:23.184Z,14.27
2018-06-22T06:18:51.787Z,11.10
2018-06-22T06:21:20.410Z,15.03
2018-06-22T06:23:48.805Z,16.17
2018-06-22T06:26:17.334Z,11.90
2018-06-22T06:28:46.131Z,14.53
2018-06-22T06:31:14.665Z,11.33
2018-06-22T06:33:43.478Z,14.57
2018-06-22T06:36:11.875Z,13.30
2018-06-22T06:38:40.293Z,11.63
2018-06-22T06:41:09.120Z,14.53
2018-06-22T06:43:37.899Z,13.27
2018-06-22T06:46:06.424Z,10.70
2018-06-22T06:48:35.077Z,12.20
2018-06-22T06:51:03.663Z,12.37
2018-06-22T06:53:32.093Z,9.80
2018-06-22T06:56:00.843Z,10.23
2018-06-22T06:58:29.778Z,16.73
2018-06-22T07:00:58.124Z,11.53
2018-06-22T07:03:26.619Z,12.33
2018-06-22T07:05:55.265Z,10.30
2018-06-22T07:08:24.194Z,12.53
2018-06-22T07:10:52.864Z,14.37
2018-06-22T07:13:21.292Z,11.17
2018-06-22T07:15:49.721Z,14.23
2018-06-22T07:18:18.405Z,11.70
2018-06-22T07:20:47.216Z,13.20
2018-06-22T07:23:16.095Z,15.43
2018-06-22T07:25:45.027Z,13.20
2018-06-22T07:28:13.332Z,13.57
2018-06-22T07:30:42.092Z,22.43
2018-06-22T07:33:10.549Z,15.17
2018-06-22T07:35:38.932Z,14.57
2018-06-22T07:38:07.630Z,13.70
2018-06-22T07:40:36.216Z,12.63
2018-06-22T07:43:04.900Z,16.60
2018-06-22T07:45:33.177Z,13.33
2018-06-22T07:48:01.525Z,15.47
2018-06-22T07:50:29.890Z,12.73
2018-06-22T07:52:58.572Z,17.60
2018-06-22T07:55:27.122Z,17.20
2018-06-22T07:57:55.849Z,17.83
2018-06-22T08:00:24.295Z,18.43
2018-06-22T08:02:53.046Z,12.80
2018-06-22T08:05:21.438Z,18.60
2018-06-22T08:07:50.023Z,16.90
2018-06-22T08:10:18.559Z,21.10
2018-06-22T08:12:47.878Z,24.83
2018-06-22T08:15:16.873Z,15.27
2018-06-22T08:17:50.672Z,17.43
2018-06-22T08:20:28.404Z,16.43
2018-06-22T08:22:57.091Z,15.53
2018-06-22T08:25:25.680Z,15.63
2018-06-22T08:27:55.743Z,14.13
2018-06-22T08:30:29.953Z,15.13
2018-06-22T08:32:59.311Z,14.17
2018-06-22T08:35:29.389Z,19.10
2018-06-22T08:37:59.186Z,15.73
2018-06-22T08:40:31.640Z,14.73
2018-06-22T08:43:03.950Z,21.07
2018-06-22T08:45:33.681Z,16.40
2018-06-22T08:48:03.120Z,15.80
2018-06-22T08:50:36.824Z,14.73
2018-06-22T08:53:06.662Z,15.97
2018-06-22T08:55:35.236Z,15.07
2018-06-22T08:58:07.859Z,15.77
2018-06-22T09:00:37.921Z,16.10
2018-06-22T09:03:10.434Z,13.30
2018-06-22T09:05:40.905Z,15.87
2018-06-22T09:08:09.698Z,17.37
2018-06-22T09:10:38.306Z,19.07
2018-06-22T09:13:06.956Z,24.00
2018-06-22T09:15:37.777Z,18.50
2018-06-22T09:18:08.564Z,15.27
2018-06-22T09:20:37.906Z,16.47
2018-06-22T09:23:08.745Z,17.30
2018-06-22T09:25:40.074Z,13.27
2018-06-22T09:28:09.976Z,18.50
2018-06-22T09:30:38.686Z,13.97
2018-06-22T09:33:07.457Z,20.37
2018-06-22T09:35:43.985Z,16.30
2018-06-22T09:38:13.864Z,14.77
2018-06-22T09:40:42.908Z,15.30
2018-06-22T09:43:13.788Z,14.83
2018-06-22T09:45:42.760Z,13.87
2018-06-22T09:48:14.371Z,15.77
2018-06-22T09:50:46.617Z,14.47
2018-06-22T09:53:18.026Z,17.63
2018-06-22T09:55:46.532Z,17.70
2018-06-22T09:58:20.330Z,11.77
2018-06-22T10:00:52.511Z,14.27
2018-06-22T10:03:22.962Z,13.90
2018-06-22T10:05:52.100Z,14.73
2018-06-22T10:08:21.066Z,11.03
2018-06-22T10:10:53.817Z,13.67
2018-06-22T10:13:23.850Z,18.57
2018-06-22T10:16:05.805Z,10.13
2018-06-22T10:18:36.729Z,13.20
2018-06-22T10:21:08.467Z,14.67
2018-06-22T10:23:38.674Z,11.30
2018-06-22T10:26:09.931Z,16.33
2018-06-22T10:28:39.710Z,11.57
2018-06-22T10:31:11.232Z,14.57
2018-06-22T10:33:41.365Z,16.80
2018-06-22T10:36:11.297Z,13.63
2018-06-22T10:38:39.902Z,7.83
2018-06-22T10:41:08.774Z,13.53
2018-06-22T10:43:37.473Z,11.03
2018-06-22T10:46:10.117Z,10.47
2018-06-22T10:48:38.768Z,13.40
2018-06-22T10:51:07.558Z,9.47
2018-06-22T10:53:36.167Z,9.60
2018-06-22T10:56:11.941Z,11.23
2018-06-22T10:58:41.324Z,12.60
2018-06-22T11:01:12.259Z,18.73
2018-06-22T11:03:41.705Z,13.90
2018-06-22T11:06:11.118Z,9.70
2018-06-22T11:08:41.336Z,13.37
2018-06-22T11:11:09.815Z,10.87
2018-06-22T11:13:38.669Z,10.50
2018-06-22T11:16:07.226Z,9.20
2018-06-22T11:18:35.955Z,11.27
2018-06-22T11:21:05.120Z,15.23
2018-06-22T11:23:33.455Z,6.17
2018-06-22T11:26:02.158Z,10.87
2018-06-22T11:28:32.468Z,7.47
2018-06-22T11:31:01.970Z,9.40
2018-06-22T11:33:30.545Z,12.60
2018-06-22T11:35:59.672Z,14.50
2018-06-22T11:38:28.446Z,14.20
2018-06-22T11:40:57.259Z,11.43
2018-06-22T11:43:25.634Z,5.87
2018-06-22T11:45:55.141Z,9.60
2018-06-22T11:48:23.802Z,11.30
2018-06-22T11:50:52.275Z,11.07
2018-06-22T11:53:21.040Z,11.60
2018-06-22T11:55:49.854Z,10.63
2018-06-22T11:58:18.716Z,9.13
2018-06-22T12:00:47.568Z,7.90
2018-06-22T12:03:16.737Z,9.07
2018-06-22T12:05:45.676Z,8.63
2018-06-22T12:08:14.617Z,7.50
2018-06-22T12:10:43.267Z,5.83
2018-06-22T12:13:11.808Z,8.00
2018-06-22T12:15:40.231Z,7.40
2018-06-22T12:18:08.866Z,8.77
2018-06-22T12:20:37.557Z,8.73
2018-06-22T12:23:06.396Z,8.07
2018-06-22T12:25:35.216Z,7.17
2018-06-22T12:28:03.764Z,11.10
2018-06-22T12:30:33.994Z,6.63
2018-06-22T12:33:02.659Z,5.50
2018-06-22T12:35:31.405Z,7.00
2018-06-22T12:37:59.966Z,6.03
2018-06-22T12:40:28.528Z,8.00
2018-06-22T12:42:57.147Z,9.47
2018-06-22T12:45:26.180Z,7.57
2018-06-22T12:47:55.469Z,8.10
2018-06-22T12:50:24.455Z,6.23
2018-06-22T12:52:52.904Z,8.43
2018-06-22T12:55:21.368Z,8.60
2018-06-22T12:57:50.101Z,9.67
2018-06-22T13:00:18.654Z,8.17
2018-06-22T13:02:47.278Z,7.53
2018-06-22T13:05:15.951Z,7.63
2018-06-22T13:07:44.412Z,12.00
2018-06-22T13:10:13.001Z,8.30
2018-06-22T13:12:41.526Z,10.50
2018-06-22T13:15:10.092Z,5.17
2018-06-22T13:17:38.666Z,6.20
2018-06-22T13:20:07.336Z,8.20
2018-06-22T13:22:36.157Z,4.77
2018-06-22T13:25:04.955Z,6.33
2018-06-22T13:27:33.637Z,13.17
2018-06-22T13:30:02.165Z,9.87
2018-06-22T13:32:30.796Z,8.57
2018-06-22T13:34:59.346Z,7.33
2018-06-22T13:37:27.828Z,8.73
2018-06-22T13:39:56.894Z,5.23
2018-06-22T13:42:25.720Z,6.50
2018-06-22T13:44:55.424Z,3.70
2018-06-22T13:47:24.498Z,4.90
2018-06-22T13:49:53.557Z,7.50
2018-06-22T13:52:22.250Z,7.10
2018-06-22T13:54:50.803Z,7.50
2018-06-22T13:57:19.554Z,4.40
2018-06-22T13:59:48.202Z,7.87
2018-06-22T14:02:16.763Z,6.30
2018-06-22T14:04:51.162Z,5.73
2018-06-22T14:07:20.017Z,7.27
2018-06-22T14:09:48.702Z,12.63
2018-06-22T14:12:18.112Z,8.27
2018-06-22T14:14:46.746Z,9.67
2018-06-22T14:17:15.297Z,11.27
2018-06-22T14:19:44.014Z,7.97
2018-06-22T14:22:12.592Z,7.13
2018-06-22T14:24:41.323Z,5.03
2018-06-22T14:27:09.745Z,5.20
2018-06-22T14:29:38.422Z,5.57
2018-06-22T14:32:07.251Z,10.47
2018-06-22T14:34:35.982Z,6.57
2018-06-22T14:37:05.028Z,7.03
2018-06-22T14:39:33.505Z,7.40
2018-06-22T14:42:02.322Z,6.63
2018-06-22T14:44:30.898Z,7.57
2018-06-22T14:46:59.376Z,7.27
2018-06-22T14:49:27.842Z,5.90
2018-06-22T14:52:01.456Z,11.43
2018-06-22T14:54:35.892Z,11.67
2018-06-22T14:57:10.015Z,7.87
2018-06-22T14:59:44.311Z,9.40
2018-06-22T15:02:18.575Z,8.20
2018-06-22T15:04:52.812Z,4.00
2018-06-22T15:07:26.974Z,10.13
2018-06-22T15:09:55.582Z,7.70
2018-06-22T15:12:24.214Z,8.63
2018-06-22T15:14:52.887Z,5.03
2018-06-22T15:17:22.263Z,7.20
2018-06-22T15:19:50.789Z,6.27
2018-06-22T15:22:19.455Z,6.47
2018-06-22T15:24:48.143Z,7.90
2018-06-22T15:27:16.825Z,5.13
2018-06-22T15:29:45.445Z,6.27
2018-06-22T15:32:14.194Z,8.67
2018-06-22T15:34:48.626Z,8.53
2018-06-22T15:37:22.788Z,5.77
2018-06-22T15:40:55.874Z,7.90
2018-06-22T15:43:29.981Z,4.57
2018-06-22T15:46:04.327Z,8.97
2018-06-22T15:48:45.735Z,7.13
2018-06-22T15:51:20.006Z,8.53
2018-06-22T15:53:54.187Z,5.30
2018-06-22T15:56:23.651Z,7.43
2018-06-22T15:58:52.455Z,10.37
2018-06-22T16:01:21.273Z,9.30
2018-06-22T16:03:55.541Z,6.17
2018-06-22T16:06:24.435Z,6.47
2018-06-22T16:08:53.328Z,10.30
2018-06-22T16:11:26.120Z,6.10
2018-06-22T16:14:00.561Z,6.47
2018-06-22T16:16:35.305Z,8.07
2018-06-22T16:19:09.422Z,8.10
2018-06-22T16:21:43.419Z,7.90
2018-06-22T16:24:17.607Z,4.07
2018-06-22T16:26:51.917Z,6.53
2018-06-22T16:29:20.373Z,8.67
2018-06-22T16:31:48.998Z,5.30
2018-06-22T16:34:17.437Z,7.70
2018-06-22T16:36:47.640Z,10.37
2018-06-22T16:39:16.329Z,7.93
2018-06-22T16:41:44.904Z,12.80
2018-06-22T16:44:13.705Z,7.53
2018-06-22T16:46:42.353Z,4.60
2018-06-22T16:49:11.204Z,6.70
2018-06-22T16:51:41.954Z,7.13
2018-06-22T16:54:10.339Z,7.47
2018-06-22T16:56:38.964Z,8.60
2018-06-22T16:59:07.614Z,6.20
2018-06-22T17:01:35.923Z,8.27
2018-06-22T17:04:04.640Z,8.67
2018-06-22T17:06:38.960Z,13.23
2018-06-22T17:09:14.194Z,11.63
2018-06-22T17:11:48.387Z,13.70
2018-06-22T17:14:22.712Z,12.77
2018-06-22T17:16:56.905Z,9.93
2018-06-22T17:19:25.547Z,8.37
2018-06-22T17:21:54.123Z,8.17
2018-06-22T17:24:22.840Z,6.27
2018-06-22T17:26:51.166Z,14.27
2018-06-22T17:29:19.571Z,7.33
2018-06-22T17:31:48.452Z,9.97
2018-06-22T17:34:19.565Z,7.37
2018-06-22T17:36:48.362Z,9.07
2018-06-22T17:39:17.120Z,8.53
2018-06-22T17:41:45.987Z,5.47
2018-06-22T17:44:14.326Z,9.77
2018-06-22T17:46:42.903Z,11.47
2018-06-22T17:49:11.499Z,10.63
2018-06-22T17:51:40.956Z,5.10
2018-06-22T17:54:09.761Z,7.50
2018-06-22T17:56:38.589Z,7.97
2018-06-22T17:59:12.694Z,10.03
2018-06-22T18:02:45.863Z,8.30
2018-06-22T18:05:20.081Z,11.17
2018-06-22T18:07:49.205Z,8.87
2018-06-22T18:10:23.396Z,7.73
2018-06-22T18:12:54.796Z,12.27
2018-06-22T18:15:23.439Z,8.87
2018-06-22T18:17:52.062Z,10.70
2018-06-22T18:20:20.859Z,11.03
2018-06-22T18:22:49.538Z,6.90
2018-06-22T18:25:18.322Z,14.67
2018-06-22T18:27:47.004Z,12.00
2018-06-22T18:30:16.227Z,8.27
2018-06-22T18:32:44.788Z,10.53
2018-06-22T18:35:14.693Z,12.50
2018-06-22T18:37:43.470Z,15.07
2018-06-22T18:40:12.334Z,8.53
2018-06-22T18:42:40.865Z,12.57
2018-06-22T18:45:11.416Z,7.13
2018-06-22T18:47:40.665Z,14.27
2018-06-22T18:50:09.508Z,7.57
2018-06-22T18:52:43.486Z,13.70
2018-06-22T18:57:45.764Z,12.77
2018-06-22T19:00:20.099Z,14.13
2018-06-22T19:02:54.584Z,12.53
2018-06-22T19:05:23.457Z,17.10
2018-06-22T19:07:52.029Z,5.50
2018-06-22T19:10:20.608Z,9.07
2018-06-22T19:12:49.113Z,14.90
2018-06-22T19:15:22.780Z,8.93
2018-06-22T19:17:51.457Z,16.30
2018-06-22T19:20:19.955Z,16.70
2018-06-22T19:22:48.329Z,15.07
2018-06-22T19:25:16.857Z,16.37
2018-06-22T19:27:45.419Z,16.30
2018-06-22T19:30:14.292Z,15.77
2018-06-22T19:32:43.455Z,17.17
2018-06-22T19:35:13.548Z,15.47
2018-06-22T19:37:43.639Z,15.33
2018-06-22T19:40:12.493Z,17.30
2018-06-22T19:42:41.218Z,12.87
2018-06-22T19:45:15.233Z,16.83
2018-06-22T19:47:49.648Z,17.97
2018-06-22T19:51:26.690Z,19.70
2018-06-22T19:53:58.255Z,13.63
2018-06-22T19:56:27.015Z,11.83
2018-06-22T19:58:55.767Z,16.53
2018-06-22T20:01:24.369Z,15.97
2018-06-22T20:03:53.003Z,15.27
2018-06-22T20:06:21.769Z,19.87
2018-06-22T20:08:50.357Z,14.80
2018-06-22T20:11:18.980Z,12.10
2018-06-22T20:13:47.619Z,11.63
2018-06-22T20:16:16.394Z,17.20
2018-06-22T20:18:45.143Z,22.13
2018-06-22T20:21:13.690Z,19.57
2018-06-22T20:23:42.185Z,14.63
2018-06-22T20:26:10.987Z,17.53
2018-06-22T20:28:39.581Z,22.37
2018-06-22T20:31:08.353Z,20.00
2018-06-22T20:33:36.890Z,16.33
2018-06-22T20:36:11.279Z,17.00
2018-06-22T20:38:45.507Z,16.40
2018-06-22T20:41:19.356Z,15.57
2018-06-22T20:43:53.485Z,16.13
2018-06-22T20:46:27.620Z,12.40
2018-06-22T20:51:09.044Z,16.90
2018-06-22T20:53:37.373Z,13.63
2018-06-22T20:56:05.875Z,13.90
2018-06-22T20:58:34.768Z,14.50
2018-06-22T21:01:03.512Z,19.23
2018-06-22T21:03:32.040Z,16.57
2018-06-22T21:06:00.922Z,11.50
2018-06-22T21:08:29.473Z,16.20
2018-06-22T21:10:58.340Z,15.47
2018-06-22T21:13:26.979Z,17.17
2018-06-22T21:15:55.732Z,12.17
2018-06-22T21:18:24.293Z,18.10
2018-06-22T21:20:58.265Z,22.07
2018-06-22T21:23:26.906Z,14.03
2018-06-22T21:25:55.525Z,16.23
2018-06-22T21:29:33.759Z,15.03
2018-06-22T21:32:07.941Z,21.10
2018-06-22T21:34:40.981Z,22.27
2018-06-22T21:37:15.301Z,17.20
2018-06-22T21:39:43.532Z,21.43
2018-06-22T21:42:12.083Z,17.37
2018-06-22T21:44:40.794Z,14.30
2018-06-22T21:47:09.515Z,16.17
2018-06-22T21:49:38.194Z,18.33
2018-06-22T21:52:07.015Z,18.07
2018-06-22T21:54:35.670Z,17.77
2018-06-22T21:57:04.440Z,16.90
2018-06-22T21:59:32.950Z,16.40
2018-06-22T22:02:01.467Z,17.33
2018-06-22T22:04:42.503Z,18.77
2018-06-22T22:07:12.381Z,22.77
2018-06-22T22:09:43.022Z,15.77
2018-06-22T22:12:13.012Z,14.43
2018-06-22T22:14:42.928Z,13.97
2018-06-22T22:17:12.077Z,14.50
2018-06-22T22:19:41.834Z,15.27
2018-06-22T22:22:11.788Z,14.13
2018-06-22T22:24:41.380Z,16.23
2018-06-22T22:27:11.438Z,18.60
2018-06-22T22:29:41.311Z,21.50
2018-06-22T22:32:11.287Z,19.10
2018-06-22T22:34:41.618Z,13.73
2018-06-22T22:37:11.528Z,17.67
2018-06-22T22:39:41.989Z,18.20
2018-06-22T22:42:13.265Z,18.93
2018-06-22T22:44:44.136Z,16.63
2018-06-22T22:47:14.081Z,14.43
2018-06-22T22:49:44.430Z,18.13
2018-06-22T22:52:14.965Z,20.90
2018-06-22T22:54:44.861Z,20.97
2018-06-22T22:57:14.981Z,18.77
2018-06-22T22:59:44.571Z,18.37
2018-06-22T23:02:14.180Z,16.93
2018-06-22T23:04:43.800Z,21.13
2018-06-22T23:07:12.611Z,18.03
2018-06-22T23:09:41.622Z,17.73
2018-06-22T23:12:10.581Z,16.03
2018-06-22T23:14:39.348Z,16.70
2018-06-22T23:17:10.300Z,21.37
2018-06-22T23:19:40.260Z,23.67
2018-06-22T23:22:10.199Z,18.73
2018-06-22T23:24:42.720Z,15.63
2018-06-22T23:27:11.512Z,18.83
2018-06-22T23:29:40.900Z,18.17
2018-06-22T23:32:09.792Z,16.40
2018-06-22T23:34:39.093Z,20.33
2018-06-22T23:37:17.191Z,19.43
2018-06-22T23:40:08.972Z,19.57
2018-06-22T23:42:41.102Z,21.50
2018-06-22T23:45:10.301Z,15.17
2018-06-22T23:48:04.443Z,20.27
2018-06-22T23:50:33.564Z,23.73
2018-06-22T23:53:02.481Z,22.33
2018-06-22T23:55:32.724Z,23.27
2018-06-22T23:58:01.586Z,21.83
